createdAt,value
2022-11-25T00:00:27.263Z,0.0391
2022-11-25T00:01:27.315Z,0.05321
2022-11-25T00:02:27.512Z,0.04433
2022-11-25T00:03:27.417Z,0.05841
2022-11-25T00:04:27.391Z,0.09071
2022-11-25T00:05:27.418Z,0.1402
2022-11-25T00:06:27.449Z,0.1543
2022-11-25T00:07:27.511Z,0.1543
2022-11-25T00:08:27.509Z,0.122
2022-11-25T00:09:27.541Z,0.1188
2022-11-25T00:10:27.575Z,0.1099
2022-11-25T00:11:27.610Z,0.1734
2022-11-25T00:12:27.635Z,0.2104
2022-11-25T00:13:27.675Z,0.2104
2022-11-25T00:14:27.698Z,0.2459
2022-11-25T00:15:27.730Z,0.2335
2022-11-25T00:16:27.874Z,0.2335
2022-11-25T00:17:27.795Z,0.2335
2022-11-25T00:18:27.824Z,0.2012
2022-11-25T00:19:27.858Z,0.1517
2022-11-25T00:20:27.885Z,0.2054
2022-11-25T00:21:27.918Z,0.1824
2022-11-25T00:22:27.953Z,0.1824
2022-11-25T00:23:31.974Z,0.1964
2022-11-25T00:24:28.007Z,0.1964
2022-11-25T00:25:28.035Z,0.1964
2022-11-25T00:26:28.068Z,0.2195
2022-11-25T00:27:28.095Z,0.2012
2022-11-25T00:28:28.132Z,0.2195
2022-11-25T00:29:28.158Z,0.1964
2022-11-25T00:30:28.178Z,0.1782
2022-11-25T00:31:28.249Z,0.2287
2022-11-25T00:32:28.245Z,0.2287
2022-11-25T00:33:28.274Z,0.2287
2022-11-25T00:34:28.314Z,0.2287
2022-11-25T00:35:28.345Z,0.2427
2022-11-25T00:36:28.374Z,0.2566
2022-11-25T00:37:28.400Z,0.2787
2022-11-25T00:38:28.423Z,0.2787
2022-11-25T00:39:28.463Z,0.2647
2022-11-25T00:40:28.496Z,0.2507
2022-11-25T00:41:28.531Z,0.2507
2022-11-25T00:42:28.555Z,0.2367
2022-11-25T00:43:28.583Z,0.2367
2022-11-25T00:44:28.616Z,0.2764
2022-11-25T00:45:28.709Z,0.2985
2022-11-25T00:46:28.670Z,0.2985
2022-11-25T00:47:28.706Z,0.2812
2022-11-25T00:48:28.740Z,0.2317
2022-11-25T00:49:28.771Z,0.2547
2022-11-25T00:50:28.806Z,0.2265
2022-11-25T00:51:28.830Z,0.2265
2022-11-25T00:52:28.868Z,0.2265
2022-11-25T00:53:28.895Z,0.2265
2022-11-25T00:54:28.925Z,0.2265
2022-11-25T00:55:28.960Z,0.2265
2022-11-25T00:56:28.993Z,0.2265
2022-11-25T00:57:29.023Z,0.2125
2022-11-25T00:58:29.055Z,0.1984
2022-11-25T00:59:29.087Z,0.1984
2022-11-25T01:00:29.133Z,0.1984
2022-11-25T01:01:29.245Z,0.1895
2022-11-25T01:02:29.245Z,0.1895
2022-11-25T01:03:29.225Z,0.239
2022-11-25T01:04:29.254Z,0.2531
2022-11-25T01:05:29.287Z,0.2483
2022-11-25T01:06:29.318Z,0.2764
2022-11-25T01:07:29.403Z,0.2904
2022-11-25T01:08:29.387Z,0.3045
2022-11-25T01:09:29.424Z,0.3045
2022-11-25T01:10:29.447Z,0.3185
2022-11-25T01:11:29.484Z,0.3185
2022-11-25T01:12:29.521Z,0.3324
2022-11-25T01:13:29.552Z,0.3324
2022-11-25T01:14:29.597Z,0.3324
2022-11-25T01:15:29.618Z,0.3324
2022-11-25T01:16:29.777Z,0.3324
2022-11-25T01:17:29.682Z,0.3464
2022-11-25T01:18:29.708Z,0.3464
2022-11-25T01:19:29.744Z,0.3464
2022-11-25T01:20:29.762Z,0.3464
2022-11-25T01:21:29.806Z,0.3604
2022-11-25T01:22:29.833Z,0.3604
2022-11-25T01:23:29.876Z,0.3744
2022-11-25T01:24:29.896Z,0.3744
2022-11-25T01:25:29.927Z,0.3883
2022-11-25T01:26:29.965Z,0.4023
2022-11-25T01:27:29.998Z,0.4162
2022-11-25T01:28:30.020Z,0.4301
2022-11-25T01:29:30.063Z,0.444
2022-11-25T01:30:30.105Z,0.4522
2022-11-25T01:31:30.222Z,0.4522
2022-11-25T01:32:30.163Z,0.4522
2022-11-25T01:33:30.203Z,0.5597
2022-11-25T01:34:30.234Z,0.5597
2022-11-25T01:35:30.256Z,0.5597
2022-11-25T01:36:30.284Z,0.5737
2022-11-25T01:37:30.311Z,0.5645
2022-11-25T01:38:30.342Z,0.5107
2022-11-25T01:39:32.876Z,0.529
2022-11-25T01:40:30.403Z,0.5151
2022-11-25T01:41:30.452Z,0.5012
2022-11-25T01:42:30.472Z,0.469
2022-11-25T01:43:30.504Z,0.455
2022-11-25T01:44:30.535Z,0.4872
2022-11-25T01:45:30.628Z,0.4459
2022-11-25T01:46:30.603Z,0.4824
2022-11-25T01:47:30.633Z,0.5179
2022-11-25T01:48:30.657Z,0.4997
2022-11-25T01:49:30.681Z,0.4642
2022-11-25T01:50:30.722Z,0.4502
2022-11-25T01:51:30.753Z,0.4362
2022-11-25T01:52:30.786Z,0.4362
2022-11-25T01:53:30.814Z,0.4411
2022-11-25T01:54:30.849Z,0.4378
2022-11-25T01:55:30.883Z,0.4162
2022-11-25T01:56:30.908Z,0.3931
2022-11-25T01:57:30.942Z,0.384
2022-11-25T01:58:30.962Z,0.4025
2022-11-25T01:59:30.994Z,0.3531
2022-11-25T02:00:31.028Z,0.367
2022-11-25T02:01:31.171Z,0.3003
2022-11-25T02:02:31.171Z,0.2327
2022-11-25T02:03:31.108Z,0.214
2022-11-25T02:04:31.136Z,0.1862
2022-11-25T02:05:33.968Z,0.168
2022-11-25T02:06:31.198Z,0.132
2022-11-25T02:07:31.304Z,0.01916
2022-11-25T02:08:31.258Z,-0.003874
2022-11-25T02:09:31.298Z,-0.01783
2022-11-25T02:10:31.323Z,-0.03178
2022-11-25T02:11:31.349Z,-0.06877
2022-11-25T02:12:31.378Z,-0.09674
2022-11-25T02:13:31.415Z,-0.1925
2022-11-25T02:14:31.444Z,-0.2286
2022-11-25T02:15:31.473Z,-0.2286
2022-11-25T02:16:31.527Z,-0.2567
2022-11-25T02:17:31.544Z,-0.2937
2022-11-25T02:18:31.576Z,-0.2583
2022-11-25T02:19:31.605Z,-0.2724
2022-11-25T02:20:31.635Z,-0.312
2022-11-25T02:21:31.663Z,-0.3209
2022-11-25T02:22:31.699Z,-0.3068
2022-11-25T02:23:31.726Z,-0.2961
2022-11-25T02:24:31.755Z,-0.3455
2022-11-25T02:25:31.798Z,-0.3596
2022-11-25T02:26:31.836Z,-0.3455
2022-11-25T02:27:31.917Z,-0.3455
2022-11-25T02:28:31.917Z,-0.3095
2022-11-25T02:29:31.940Z,-0.3375
2022-11-25T02:30:31.977Z,-0.3704
2022-11-25T02:31:32.058Z,-0.335
2022-11-25T02:32:32.045Z,-0.3068
2022-11-25T02:33:32.088Z,-0.2632
2022-11-25T02:34:32.120Z,-0.2213
2022-11-25T02:35:32.140Z,-0.1565
2022-11-25T02:36:32.176Z,-0.1287
2022-11-25T02:37:32.214Z,-0.1009
2022-11-25T02:38:32.243Z,-0.07322
2022-11-25T02:39:32.273Z,-0.005196
2022-11-25T02:40:32.302Z,0.04069
2022-11-25T02:41:32.347Z,0.1038
2022-11-25T02:42:32.370Z,0.1176
2022-11-25T02:43:32.399Z,0.1672
2022-11-25T02:44:32.443Z,0.181
2022-11-25T02:45:32.485Z,0.1947
2022-11-25T02:46:32.495Z,0.1947
2022-11-25T02:47:32.526Z,0.181
2022-11-25T02:49:00.798Z,0.181
2022-11-25T02:49:32.607Z,0.181
2022-11-25T02:50:32.626Z,0.181
2022-11-25T02:51:32.655Z,0.204
2022-11-25T02:52:32.686Z,0.1903
2022-11-25T02:53:32.715Z,0.2259
2022-11-25T02:54:32.800Z,0.2259
2022-11-25T02:55:32.769Z,0.2121
2022-11-25T02:56:32.813Z,0.1983
2022-11-25T02:57:32.845Z,0.1983
2022-11-25T02:58:32.872Z,0.2121
2022-11-25T02:59:32.900Z,0.2259
2022-11-25T03:00:32.926Z,0.2259
2022-11-25T03:01:33.153Z,0.249
2022-11-25T03:02:33.025Z,0.2352
2022-11-25T03:03:33.021Z,0.2445
2022-11-25T03:04:33.364Z,0.2169
2022-11-25T03:05:33.086Z,0.2262
2022-11-25T03:06:33.108Z,0.2262
2022-11-25T03:07:33.231Z,0.1985
2022-11-25T03:08:33.158Z,0.2466
2022-11-25T03:09:33.196Z,0.2327
2022-11-25T03:10:33.224Z,0.2188
2022-11-25T03:11:33.267Z,0.228
2022-11-25T03:12:33.300Z,0.214
2022-11-25T03:13:33.322Z,0.2356
2022-11-25T03:14:33.498Z,0.2077
2022-11-25T03:15:33.393Z,0.2077
2022-11-25T03:16:33.535Z,0.2217
2022-11-25T03:17:33.460Z,0.2077
2022-11-25T03:18:33.493Z,0.2077
2022-11-25T03:19:33.518Z,0.2077
2022-11-25T03:20:33.537Z,0.2259
2022-11-25T03:21:33.567Z,0.2614
2022-11-25T03:22:33.599Z,0.2292
2022-11-25T03:23:33.638Z,0.2292
2022-11-25T03:24:34.055Z,0.212
2022-11-25T03:25:33.703Z,0.234
2022-11-25T03:26:33.729Z,0.234
2022-11-25T03:27:33.764Z,0.234
2022-11-25T03:28:33.791Z,0.22
2022-11-25T03:29:33.829Z,0.2555
2022-11-25T03:30:33.861Z,0.2645
2022-11-25T03:31:33.942Z,0.2118
2022-11-25T03:32:33.915Z,0.1977
2022-11-25T03:33:33.957Z,0.1977
2022-11-25T03:34:34.376Z,0.1837
2022-11-25T03:35:34.018Z,0.1697
2022-11-25T03:36:34.093Z,0.1556
2022-11-25T03:37:34.075Z,0.1639
2022-11-25T03:38:34.105Z,0.178
2022-11-25T03:39:34.143Z,0.2134
2022-11-25T03:40:34.179Z,0.2134
2022-11-25T03:41:34.209Z,0.201
2022-11-25T03:42:34.252Z,0.1869
2022-11-25T03:43:34.290Z,0.1869
2022-11-25T03:44:34.640Z,0.1728
2022-11-25T03:45:34.418Z,0.1728
2022-11-25T03:46:34.392Z,0.2234
2022-11-25T03:47:34.430Z,0.2406
2022-11-25T03:48:34.444Z,0.2406
2022-11-25T03:49:34.465Z,0.2406
2022-11-25T03:50:34.500Z,0.2761
2022-11-25T03:51:34.529Z,0.2761
2022-11-25T03:52:34.566Z,0.262
2022-11-25T03:53:34.598Z,0.2479
2022-11-25T03:54:35.114Z,0.2249
2022-11-25T03:55:34.653Z,0.1895
2022-11-25T03:56:34.687Z,0.2035
2022-11-25T03:57:34.712Z,0.1895
2022-11-25T03:58:34.743Z,0.1754
2022-11-25T03:59:34.780Z,0.1895
2022-11-25T04:00:34.810Z,0.1805
2022-11-25T04:01:34.916Z,0.1946
2022-11-25T04:02:34.953Z,0.2227
2022-11-25T04:03:34.904Z,0.2367
2022-11-25T04:04:35.252Z,0.2367
2022-11-25T04:05:34.978Z,0.2507
2022-11-25T04:06:35.003Z,0.2878
2022-11-25T04:07:35.066Z,0.2878
2022-11-25T04:08:35.070Z,0.2878
2022-11-25T04:09:35.105Z,0.3017
2022-11-25T04:10:35.127Z,0.3017
2022-11-25T04:11:35.157Z,0.3017
2022-11-25T04:12:35.190Z,0.3017
2022-11-25T04:13:35.215Z,0.3108
2022-11-25T04:14:35.553Z,0.3233
2022-11-25T04:15:35.282Z,0.3545
2022-11-25T04:16:35.348Z,0.3545
2022-11-25T04:17:35.359Z,0.3685
2022-11-25T04:18:35.394Z,0.3825
2022-11-25T04:19:35.429Z,0.3825
2022-11-25T04:20:35.451Z,0.3964
2022-11-25T04:21:35.486Z,0.4195
2022-11-25T04:22:35.519Z,0.4334
2022-11-25T04:23:35.556Z,0.4334
2022-11-25T04:24:35.875Z,0.492
2022-11-25T04:25:35.630Z,0.5199
2022-11-25T04:26:35.659Z,0.5337
2022-11-25T04:27:35.698Z,0.5476
2022-11-25T04:28:35.757Z,0.5615
2022-11-25T04:29:35.756Z,0.5846
2022-11-25T04:30:35.844Z,0.5802
2022-11-25T04:31:35.831Z,0.5663
2022-11-25T04:32:35.851Z,0.6076
2022-11-25T04:33:35.891Z,0.5937
2022-11-25T04:34:36.289Z,0.5616
2022-11-25T04:35:35.958Z,0.5847
2022-11-25T04:36:35.985Z,0.5708
2022-11-25T04:37:36.019Z,0.5708
2022-11-25T04:38:36.059Z,0.5568
2022-11-25T04:39:36.083Z,0.5429
2022-11-25T04:40:36.124Z,0.5429
2022-11-25T04:41:36.153Z,0.529
2022-11-25T04:42:36.191Z,0.529
2022-11-25T04:43:36.222Z,0.5429
2022-11-25T04:44:36.376Z,0.5429
2022-11-25T04:45:58.619Z,0.5568
2022-11-25T04:46:36.356Z,0.5429
2022-11-25T04:47:36.355Z,0.5429
2022-11-25T04:48:36.377Z,0.552
2022-11-25T04:49:36.424Z,0.552
2022-11-25T04:50:36.453Z,0.5554
2022-11-25T04:51:36.493Z,0.5909
2022-11-25T04:52:36.530Z,0.5769
2022-11-25T04:53:36.564Z,0.5769
2022-11-25T04:54:36.890Z,0.5629
2022-11-25T04:55:36.635Z,0.5629
2022-11-25T04:56:36.656Z,0.549
2022-11-25T04:57:36.690Z,0.5845
2022-11-25T04:58:36.723Z,0.5704
2022-11-25T04:59:36.754Z,0.5935
2022-11-25T05:00:36.771Z,0.5794
2022-11-25T05:01:36.825Z,0.5514
2022-11-25T05:02:36.944Z,0.5514
2022-11-25T05:03:36.869Z,0.5373
2022-11-25T05:04:37.104Z,0.5232
2022-11-25T05:05:36.930Z,0.5107
2022-11-25T05:06:36.946Z,0.5091
2022-11-25T05:07:37.037Z,0.5321
2022-11-25T05:08:37.016Z,0.5149
2022-11-25T05:09:37.039Z,0.5008
2022-11-25T05:10:37.070Z,0.4826
2022-11-25T05:11:37.096Z,0.4402
2022-11-25T05:12:37.136Z,0.426
2022-11-25T05:13:37.166Z,0.4402
2022-11-25T05:14:37.574Z,0.426
2022-11-25T05:15:37.225Z,0.426
2022-11-25T05:16:37.293Z,0.426
2022-11-25T05:17:37.291Z,0.426
2022-11-25T05:18:37.326Z,0.426
2022-11-25T05:19:37.353Z,0.4119
2022-11-25T05:20:37.393Z,0.3977
2022-11-25T05:21:37.418Z,0.3835
2022-11-25T05:22:37.455Z,0.3551
2022-11-25T05:23:37.487Z,0.3409
2022-11-25T05:24:37.850Z,0.3551
2022-11-25T05:25:37.547Z,0.3551
2022-11-25T05:26:37.589Z,0.3551
2022-11-25T05:27:37.611Z,0.3409
2022-11-25T05:28:37.641Z,0.3305
2022-11-25T05:29:37.675Z,0.2751
2022-11-25T05:30:37.777Z,0.2933
2022-11-25T05:31:37.739Z,0.343
2022-11-25T05:32:37.770Z,0.3572
2022-11-25T05:33:37.798Z,0.3533
2022-11-25T05:34:38.084Z,0.3729
2022-11-25T05:35:37.862Z,0.3486
2022-11-25T05:36:37.895Z,0.368
2022-11-25T05:37:37.926Z,0.3732
2022-11-25T05:38:37.956Z,0.4155
2022-11-25T05:39:37.979Z,0.4205
2022-11-25T05:40:38.019Z,0.4173
2022-11-25T05:41:38.056Z,0.4453
2022-11-25T05:42:38.089Z,0.4362
2022-11-25T05:43:38.117Z,0.39
2022-11-25T05:44:38.384Z,0.3545
2022-11-25T05:45:38.202Z,0.3545
2022-11-25T05:46:38.209Z,0.3405
2022-11-25T05:47:38.247Z,0.283
2022-11-25T05:48:38.272Z,0.2269
2022-11-25T05:49:38.321Z,0.1847
2022-11-25T05:50:38.334Z,0.1028
2022-11-25T05:51:38.372Z,0.05563
2022-11-25T05:52:38.395Z,0.08388
2022-11-25T05:53:38.432Z,0.07184
2022-11-25T05:54:38.732Z,0.03954
2022-11-25T05:55:38.485Z,0.02542
2022-11-25T05:56:38.515Z,-0.04715
2022-11-25T05:57:38.549Z,-0.06851
2022-11-25T05:58:38.570Z,-0.127
2022-11-25T05:59:38.602Z,-0.1552
2022-11-25T06:00:38.638Z,-0.1923
2022-11-25T06:01:38.670Z,-0.2064
2022-11-25T06:02:38.865Z,-0.2719
2022-11-25T06:03:38.780Z,-0.3529
2022-11-25T06:04:38.958Z,-0.3499
2022-11-25T06:05:38.797Z,-0.45
2022-11-25T06:06:38.825Z,-0.4785
2022-11-25T06:07:38.942Z,-0.5015
2022-11-25T06:08:38.886Z,-0.5158
2022-11-25T06:09:38.927Z,-0.6592
2022-11-25T06:10:38.950Z,-0.7021
2022-11-25T06:11:38.988Z,-0.6735
2022-11-25T06:12:39.019Z,-0.6669
2022-11-25T06:13:39.050Z,-0.5785
2022-11-25T06:14:39.078Z,-0.5249
2022-11-25T06:15:39.140Z,-0.6228
2022-11-25T06:16:39.147Z,-0.6016
2022-11-25T06:17:39.168Z,-0.5875
2022-11-25T06:18:39.194Z,-0.6528
2022-11-25T06:19:39.233Z,-0.6758
2022-11-25T06:20:39.263Z,-0.69
2022-11-25T06:21:39.290Z,-0.6758
2022-11-25T06:22:39.325Z,-0.7254
2022-11-25T06:23:39.372Z,-0.7484
2022-11-25T06:24:39.400Z,-0.7625
2022-11-25T06:25:39.546Z,-0.7342
2022-11-25T06:26:39.461Z,-0.7776
2022-11-25T06:28:10.651Z,-0.7494
2022-11-25T06:28:39.515Z,-0.7353
2022-11-25T06:29:39.558Z,-0.8453
2022-11-25T06:30:39.577Z,-0.8171
2022-11-25T06:31:39.723Z,-0.8453
2022-11-25T06:32:39.638Z,-0.9351
2022-11-25T06:33:39.667Z,-1.041
2022-11-25T06:34:39.701Z,-1.027
2022-11-25T06:35:39.741Z,-1.041
2022-11-25T06:36:39.767Z,-1.013
2022-11-25T06:37:39.810Z,-1.027
2022-11-25T06:38:39.837Z,-1.038
2022-11-25T06:39:39.871Z,-1.089
2022-11-25T06:40:39.894Z,-1.139
2022-11-25T06:41:39.929Z,-1.168
2022-11-25T06:42:39.962Z,-1.196
2022-11-25T06:43:39.987Z,-1.264
2022-11-25T06:44:40.017Z,-1.33
2022-11-25T06:45:40.058Z,-1.33
2022-11-25T06:46:40.173Z,-1.316
2022-11-25T06:47:40.121Z,-1.363
2022-11-25T06:48:40.150Z,-1.348
2022-11-25T06:49:40.168Z,-1.32
2022-11-25T06:50:40.203Z,-1.305
2022-11-25T06:51:40.227Z,-1.312
2022-11-25T06:52:40.262Z,-1.333
2022-11-25T06:53:40.299Z,-1.41
2022-11-25T06:54:40.320Z,-1.428
2022-11-25T06:55:40.353Z,-1.45
2022-11-25T06:56:40.385Z,-1.433
2022-11-25T06:57:40.421Z,-1.418
2022-11-25T06:58:40.441Z,-1.433
2022-11-25T06:59:40.475Z,-1.496
2022-11-25T07:00:40.506Z,-1.533
2022-11-25T07:01:40.631Z,-1.547
2022-11-25T07:02:45.315Z,-1.533
2022-11-25T07:03:40.589Z,-1.501
2022-11-25T07:04:40.627Z,-1.452
2022-11-25T07:05:40.657Z,-1.414
2022-11-25T07:06:40.685Z,-1.414
2022-11-25T07:07:40.758Z,-1.414
2022-11-25T07:08:40.751Z,-1.4
2022-11-25T07:09:40.789Z,-1.429
2022-11-25T07:10:40.809Z,-1.443
2022-11-25T07:11:40.838Z,-1.42
2022-11-25T07:12:40.868Z,-1.42
2022-11-25T07:13:40.899Z,-1.42
2022-11-25T07:14:40.936Z,-1.411
2022-11-25T07:15:41.035Z,-1.408
2022-11-25T07:16:43.515Z,-1.38
2022-11-25T07:17:41.025Z,-1.351
2022-11-25T07:18:41.056Z,-1.257
2022-11-25T07:19:41.083Z,-1.158
2022-11-25T07:20:41.124Z,-1.051
2022-11-25T07:21:41.152Z,-0.9142
2022-11-25T07:22:41.180Z,-0.8076
2022-11-25T07:23:41.212Z,-0.7384
2022-11-25T07:24:41.243Z,-0.6601
2022-11-25T07:25:41.289Z,-0.6188
2022-11-25T07:26:41.312Z,-0.4837
2022-11-25T07:27:41.348Z,-0.3742
2022-11-25T07:28:41.371Z,-0.3381
2022-11-25T07:30:18.718Z,-0.311
2022-11-25T07:31:22.193Z,-0.2483
2022-11-25T07:31:41.483Z,-0.2165
2022-11-25T07:32:41.509Z,-0.1673
2022-11-25T07:33:41.651Z,-0.1403
2022-11-25T07:34:41.575Z,-0.1308
2022-11-25T07:35:41.606Z,-0.08657
2022-11-25T07:36:41.648Z,-0.0365
2022-11-25T07:37:41.679Z,0.04912
2022-11-25T07:38:46.313Z,0.0759
2022-11-25T07:39:41.734Z,0.1026
2022-11-25T07:40:41.770Z,0.165
2022-11-25T07:41:41.804Z,0.2005
2022-11-25T07:42:41.842Z,0.2322
2022-11-25T07:43:41.872Z,0.2588
2022-11-25T07:44:41.891Z,0.2721
2022-11-25T07:45:41.922Z,0.3701
2022-11-25T07:46:41.986Z,0.4007
2022-11-25T07:47:41.988Z,0.4372
2022-11-25T07:48:42.031Z,0.4636
2022-11-25T07:49:42.060Z,0.4994
2022-11-25T07:50:42.085Z,0.5358
2022-11-25T07:51:42.129Z,0.5307
2022-11-25T07:52:42.154Z,0.5406
2022-11-25T07:53:42.188Z,0.5274
2022-11-25T07:54:42.216Z,0.5632
2022-11-25T07:55:42.245Z,0.5632
2022-11-25T07:56:42.286Z,0.604
2022-11-25T07:57:42.307Z,0.6139
2022-11-25T07:58:45.843Z,0.6139
2022-11-25T07:59:42.398Z,0.6139
2022-11-25T08:00:42.417Z,0.6139
2022-11-25T08:01:42.525Z,0.618
2022-11-25T08:02:42.572Z,0.6364
2022-11-25T08:03:42.510Z,0.6588
2022-11-25T08:04:42.546Z,0.6588
2022-11-25T08:05:42.575Z,0.6721
2022-11-25T08:06:42.607Z,0.6987
2022-11-25T08:07:42.667Z,0.6987
2022-11-25T08:08:42.669Z,0.7617
2022-11-25T08:09:42.700Z,0.775
2022-11-25T08:10:42.724Z,0.7924
2022-11-25T08:11:42.758Z,0.8107
2022-11-25T08:12:42.795Z,0.8339
2022-11-25T08:13:42.828Z,0.8206
2022-11-25T08:14:42.855Z,0.8073
2022-11-25T08:15:42.985Z,0.794
2022-11-25T08:16:42.917Z,0.8039
2022-11-25T08:17:42.955Z,0.7905
2022-11-25T08:18:42.983Z,0.8129
2022-11-25T08:19:43.013Z,0.8535
2022-11-25T08:20:43.053Z,0.8535
2022-11-25T08:21:43.075Z,0.8401
2022-11-25T08:22:43.106Z,0.8267
2022-11-25T08:23:43.140Z,0.8267
2022-11-25T08:24:43.165Z,0.8633
2022-11-25T08:25:47.448Z,0.899
2022-11-25T08:26:43.226Z,0.953
2022-11-25T08:27:43.256Z,0.9936
2022-11-25T08:28:43.295Z,0.9802
2022-11-25T08:29:43.315Z,0.9668
2022-11-25T08:30:43.355Z,0.9899
2022-11-25T08:31:43.540Z,0.9765
2022-11-25T08:32:43.424Z,1.065
2022-11-25T08:33:43.449Z,1.084
2022-11-25T08:34:43.482Z,1.052
2022-11-25T08:35:43.510Z,1.065
2022-11-25T08:36:48.008Z,1.052
2022-11-25T08:37:43.583Z,1.052
2022-11-25T08:38:43.609Z,1.065
2022-11-25T08:39:52.258Z,1.088
2022-11-25T08:40:43.661Z,1.088
2022-11-25T08:41:43.693Z,1.088
2022-11-25T08:42:43.742Z,1.101
2022-11-25T08:43:43.763Z,1.101
2022-11-25T08:44:43.807Z,1.114
2022-11-25T08:45:43.832Z,1.101
2022-11-25T08:46:43.951Z,1.114
2022-11-25T08:47:43.899Z,1.186
2022-11-25T08:48:43.933Z,1.186
2022-11-25T08:49:44.222Z,1.222
2022-11-25T08:50:43.998Z,1.236
2022-11-25T08:51:44.033Z,1.313
2022-11-25T08:52:44.063Z,1.326
2022-11-25T08:53:44.092Z,1.313
2022-11-25T08:54:44.128Z,1.335
2022-11-25T08:55:44.159Z,1.335
2022-11-25T08:56:44.197Z,1.322
2022-11-25T08:57:44.236Z,1.362
2022-11-25T08:58:44.265Z,1.362
2022-11-25T08:59:44.298Z,1.349
2022-11-25T09:00:44.319Z,1.331
2022-11-25T09:01:44.467Z,1.313
2022-11-25T09:02:44.484Z,1.35
2022-11-25T09:03:44.416Z,1.35
2022-11-25T09:04:44.447Z,1.386
2022-11-25T09:05:44.509Z,1.426
2022-11-25T09:06:44.504Z,1.413
2022-11-25T09:07:44.627Z,1.413
2022-11-25T09:08:44.574Z,1.422
2022-11-25T09:09:44.630Z,1.395
2022-11-25T09:10:44.662Z,1.382
2022-11-25T09:11:44.859Z,1.382
2022-11-25T09:12:44.707Z,1.368
2022-11-25T09:13:44.847Z,1.368
2022-11-25T09:14:44.772Z,1.368
2022-11-25T09:15:44.883Z,1.368
2022-11-25T09:16:44.976Z,1.355
2022-11-25T09:17:44.878Z,1.364
2022-11-25T09:18:44.902Z,1.351
2022-11-25T09:19:44.936Z,1.351
2022-11-25T09:20:44.962Z,1.337
2022-11-25T09:21:44.993Z,1.337
2022-11-25T09:22:45.025Z,1.324
2022-11-25T09:23:45.048Z,1.39
2022-11-25T09:24:45.091Z,1.39
2022-11-25T09:25:45.119Z,1.404
2022-11-25T09:26:45.153Z,1.404
2022-11-25T09:27:45.179Z,1.417
2022-11-25T09:28:45.294Z,1.427
2022-11-25T09:29:45.251Z,1.427
2022-11-25T09:30:45.285Z,1.4
2022-11-25T09:31:48.870Z,1.413
2022-11-25T09:32:45.361Z,1.413
2022-11-25T09:33:45.392Z,1.467
2022-11-25T09:34:45.419Z,1.44
2022-11-25T09:35:45.458Z,1.44
2022-11-25T09:36:45.484Z,1.386
2022-11-25T09:37:45.525Z,1.4
2022-11-25T09:38:45.545Z,1.436
2022-11-25T09:39:45.578Z,1.436
2022-11-25T09:40:45.609Z,1.45
2022-11-25T09:41:45.639Z,1.45
2022-11-25T09:42:45.673Z,1.436
2022-11-25T09:43:45.718Z,1.423
2022-11-25T09:44:45.743Z,1.423
2022-11-25T09:45:45.779Z,1.423
2022-11-25T09:46:46.083Z,1.386
2022-11-25T09:47:48.963Z,1.413
2022-11-25T09:48:45.860Z,1.427
2022-11-25T09:49:45.902Z,1.477
2022-11-25T09:50:45.931Z,1.518
2022-11-25T09:51:45.959Z,1.531
2022-11-25T09:52:46.002Z,1.541
2022-11-25T09:53:46.039Z,1.514
2022-11-25T09:54:46.065Z,1.5
2022-11-25T09:55:46.103Z,1.523
2022-11-25T09:56:46.139Z,1.51
2022-11-25T09:57:46.174Z,1.496
2022-11-25T09:58:46.210Z,1.496
2022-11-25T09:59:46.236Z,1.522
2022-11-25T10:00:46.270Z,1.518
2022-11-25T10:01:46.344Z,1.482
2022-11-25T10:02:46.487Z,1.469
2022-11-25T10:03:46.473Z,1.505
2022-11-25T10:04:46.416Z,1.478
2022-11-25T10:05:46.456Z,1.464
2022-11-25T10:06:50.619Z,1.437
2022-11-25T10:07:46.526Z,1.41
2022-11-25T10:08:46.557Z,1.463
2022-11-25T10:09:46.579Z,1.463
2022-11-25T10:10:46.616Z,1.463
2022-11-25T10:11:46.650Z,1.476
2022-11-25T10:12:46.679Z,1.476
2022-11-25T10:13:46.701Z,1.499
2022-11-25T10:14:46.730Z,1.531
2022-11-25T10:15:46.899Z,1.567
2022-11-25T10:16:51.108Z,1.589
2022-11-25T10:17:46.841Z,1.575
2022-11-25T10:18:46.862Z,1.534
2022-11-25T10:19:46.905Z,1.534
2022-11-25T10:20:46.928Z,1.534
2022-11-25T10:21:46.951Z,1.534
2022-11-25T10:22:46.995Z,1.548
2022-11-25T10:23:47.028Z,1.575
2022-11-25T10:24:47.396Z,1.626
2022-11-25T10:25:47.096Z,1.626
2022-11-25T10:26:47.125Z,1.688
2022-11-25T10:27:47.166Z,1.675
2022-11-25T10:28:47.188Z,1.662
2022-11-25T10:29:47.221Z,1.676
2022-11-25T10:30:47.240Z,1.725
2022-11-25T10:31:47.337Z,1.767
2022-11-25T10:32:47.307Z,1.767
2022-11-25T10:33:47.348Z,1.79
2022-11-25T10:34:47.373Z,1.803
2022-11-25T10:35:47.407Z,1.803
2022-11-25T10:36:47.443Z,1.708
2022-11-25T10:37:47.474Z,1.731
2022-11-25T10:38:47.502Z,1.759
2022-11-25T10:39:47.530Z,1.745
2022-11-25T10:40:47.562Z,1.704
2022-11-25T10:41:47.607Z,1.69
2022-11-25T10:42:47.629Z,1.676
2022-11-25T10:43:47.664Z,1.649
2022-11-25T10:44:47.688Z,1.662
2022-11-25T10:45:47.726Z,1.649
2022-11-25T10:47:12.955Z,1.676
2022-11-25T10:47:47.881Z,1.676
2022-11-25T10:48:47.809Z,1.69
2022-11-25T10:49:47.842Z,1.704
2022-11-25T10:50:47.865Z,1.726
2022-11-25T10:51:47.903Z,1.712
2022-11-25T10:52:47.937Z,1.74
2022-11-25T10:53:47.968Z,1.772
2022-11-25T10:54:47.997Z,1.789
2022-11-25T10:55:48.037Z,1.758
2022-11-25T10:56:48.063Z,1.731
2022-11-25T10:57:48.108Z,1.703
2022-11-25T10:58:48.137Z,1.698
2022-11-25T10:59:48.160Z,1.735
2022-11-25T11:00:48.198Z,1.763
2022-11-25T11:01:48.274Z,1.79
2022-11-25T11:02:48.424Z,1.813
2022-11-25T11:03:48.294Z,1.8
2022-11-25T11:04:48.321Z,1.84
2022-11-25T11:05:48.352Z,1.799
2022-11-25T11:06:48.388Z,1.785
2022-11-25T11:07:48.569Z,1.785
2022-11-25T11:08:48.461Z,1.771
2022-11-25T11:09:48.489Z,1.757
2022-11-25T11:10:52.881Z,1.743
2022-11-25T11:11:48.561Z,1.743
2022-11-25T11:12:48.584Z,1.757
2022-11-25T11:13:48.614Z,1.808
2022-11-25T11:14:48.646Z,1.808
2022-11-25T11:15:48.718Z,1.794
2022-11-25T11:16:48.710Z,1.847
2022-11-25T11:17:48.735Z,1.884
2022-11-25T11:18:48.774Z,1.898
2022-11-25T11:19:48.801Z,1.911
2022-11-25T11:20:48.824Z,1.911
2022-11-25T11:21:48.853Z,1.921
2022-11-25T11:22:48.888Z,1.921
2022-11-25T11:23:48.923Z,1.948
2022-11-25T11:24:48.959Z,1.948
2022-11-25T11:25:48.994Z,1.985
2022-11-25T11:26:49.029Z,1.985
2022-11-25T11:27:49.071Z,1.985
2022-11-25T11:28:49.090Z,2.021
2022-11-25T11:29:49.126Z,2.035
2022-11-25T11:30:49.162Z,2.021
2022-11-25T11:31:49.304Z,2.017
2022-11-25T11:32:49.215Z,2.003
2022-11-25T11:33:49.247Z,1.961
2022-11-25T11:34:49.282Z,1.998
2022-11-25T11:35:49.307Z,1.984
2022-11-25T11:36:49.350Z,1.998
2022-11-25T11:37:49.378Z,1.994
2022-11-25T11:38:49.419Z,1.994
2022-11-25T11:39:49.445Z,2.037
2022-11-25T11:40:49.481Z,2.023
2022-11-25T11:41:49.515Z,2.023
2022-11-25T11:42:49.542Z,2.023
2022-11-25T11:43:49.580Z,2.032
2022-11-25T11:44:49.611Z,2.018
2022-11-25T11:45:49.649Z,2.026
2022-11-25T11:46:49.722Z,2.012
2022-11-25T11:47:49.702Z,1.976
2022-11-25T11:48:53.303Z,1.962
2022-11-25T11:49:49.764Z,1.962
2022-11-25T11:50:49.805Z,1.948
2022-11-25T11:51:49.836Z,1.957
2022-11-25T11:52:49.864Z,1.957
2022-11-25T11:53:49.892Z,1.957
2022-11-25T11:54:49.925Z,1.943
2022-11-25T11:56:11.797Z,1.887
2022-11-25T11:56:55.010Z,1.912
2022-11-25T11:57:50.022Z,1.898
2022-11-25T11:58:50.049Z,1.884
2022-11-25T11:59:50.084Z,1.923
2022-11-25T12:00:50.123Z,1.923
2022-11-25T12:01:50.180Z,1.959
2022-11-25T12:02:50.274Z,1.959
2022-11-25T12:03:53.010Z,1.973
2022-11-25T12:04:50.242Z,1.988
2022-11-25T12:05:50.273Z,1.988
2022-11-25T12:06:50.319Z,1.959
2022-11-25T12:07:50.371Z,1.931
2022-11-25T12:08:50.390Z,1.945
2022-11-25T12:09:50.428Z,1.945
2022-11-25T12:10:50.454Z,1.982
2022-11-25T12:11:50.493Z,1.997
2022-11-25T12:12:50.524Z,2.011
2022-11-25T12:13:50.562Z,2.011
2022-11-25T12:14:50.598Z,2.011
2022-11-25T12:15:50.669Z,2.011
2022-11-25T12:16:50.780Z,2.011
2022-11-25T12:17:50.699Z,2.011
2022-11-25T12:18:50.736Z,1.997
2022-11-25T12:19:50.771Z,1.997
2022-11-25T12:20:50.802Z,1.997
2022-11-25T12:21:50.826Z,2.034
2022-11-25T12:22:50.852Z,1.997
2022-11-25T12:23:50.897Z,2.011
2022-11-25T12:24:50.931Z,2.048
2022-11-25T12:25:50.962Z,2.034
2022-11-25T12:26:51.006Z,2.034
2022-11-25T12:27:51.041Z,2.048
2022-11-25T12:28:51.075Z,2.071
2022-11-25T12:29:51.111Z,2.071
2022-11-25T12:30:51.144Z,2.08
2022-11-25T12:31:51.247Z,2.066
2022-11-25T12:32:51.209Z,2.074
2022-11-25T12:33:51.245Z,2.059
2022-11-25T12:34:51.287Z,2.059
2022-11-25T12:35:51.314Z,2.059